HEBA

Borg El Arab International Airport

Alexandria, Egypt
TAF HEBA 162300Z 1700/1806 31017G27KT 9999 SCT020 BECMG 1704/1706 30012KT
Issued Valid From Valid To
Jan-16 @ 23:00 UTC
(6 hours ago)
Jan-17 @ 00:00 UTC
(5 hours ago)
Jan-18 @ 06:00 UTC
(-1 days ago)
Expired Click to View Jan-17 @ 00:00 to Jan-17 @ 04:00
TAF HEBA 162300Z 1700/1806 31017G27KT 9999 SCT020
Wind Visibility Clouds
310° at 17 knots
 Gusting to 27 knots
10,000+ meters
  • Scattered at 2,000' AGL
Becoming Jan-17 @ 04:00 to Jan-18 @ 06:00
BECMG 1704/1706 30012KT
Wind Visibility Clouds
300° at 12 knots 10,000+ meters
  • Scattered at 2,000' AGL
TAF HEBA 162300Z 1700/1806 31017G27KT 9999 SCT020 BECMG 1704/1706 30012KT
Issued Jan-16 @ 23:00 UTC
(6 hours ago)
Valid From Jan-17 @ 00:00 UTC
(5 hours ago)
Valid To Jan-18 @ 06:00 UTC
(-1 days ago)
Jan-17 @ 00:00 - Jan-17 @ 04:00
Wind Visibility
310° at 17 knots
 Gusting to 27 knots
10,000+ meters
Clouds
  • Scattered at 2,000' AGL
Becoming Jan-17 @ 04:00 - Jan-18 @ 06:00
Wind Visibility
300° at 12 knots 10,000+ meters
Clouds
  • Scattered at 2,000' AGL